Pagrindinis puslapis
METAR-TAF:

METAR-TAF

Oro uostai :

Hanojus, Vietnamas

platuma: 21-01N, ilguma: 105-48E, Aukštis: 6 m

Dabartinis oras

Ataskaita buvo paskelbta 29 minutes, ne 23:00 UTC
Vėjas 5 kt iš Šiaurės Vakarų
Temperatūra 17°C
Drėgmė 100%
Slėgis 1026 hPa
Matomumas: 1600 m
Su prošvaistėmis ne aukštis 200 ft
rūkana

METAR: VVNB 212300Z 32005KT 1600 BR BKN002 17/17 Q1026 TEMPO TL0030 0800 FG

Laikas: 06:29 (23:29 UTC)

Prognozė

Ataskaita buvo paskelbta 6 valandos ir 29 minutes, ne 17:00 UTC
Prognozė galioja nuo 21 metu 18 UTC su 22 metu 18 UTC
Vėjas 5 kt iš Šiaurės Vakarų
Matomumas: 1300 m
Išsisklaidę debesys ne aukštis 500 ft
rūkana
Laikinai
nuo 21 metu 18 UTC su 22 metu 01 UTC
Matomumas: 0700 m
Su prošvaistėmis ne aukštis 300 ft
rūkas
Tapsmas
nuo 22 metu 02 UTC su 22 metu 03 UTC
Matomumas: 7000 m
Išsisklaidę debesys ne aukštis 1500 ft

TAF: VVNB 211700Z 2118/2218 31005KT 1300 BR SCT005 TEMPO 2118/2201 0700 FG BKN003 BECMG 2202/2203 7000 NSW SCT015

Orai ataskaitas ir orų prognozės (METAR, TAF).

turimą stotys yra geltonos ir raudonos taškus žemėlapyje.

Perkelti pele per norėdami pamatyti stoties vardą.

Tada spustelėkite, norėdami matyti oro stebėjimo ir prognozės.

Norėdami pakeisti žemėlapį: spustelėkite ant žalios mygtukų su juodo kryžiaus žemyn,; žalią mygtuką su brūkšneliu, jei norite nutolinti; arba žalių rodyklių gretimoms žemėlapius.


METAR-TAF: